KFNL/FNL METAR and TAF weather

Enter ICAO airport designator
Station Type Date Time Source
KFNL METAR 2022/07/01 00:56 UTC NOAA

KFNL 010056Z 19009KT 10SM CLR 24/10 A3009 RMK AO2 SLP131 T02440100


Station Type Date Time Source
KFNL Decoded METAR 2022/07/01 00:56 UTC NOAA

Fort Collins/Loveland, Fort Collins-Loveland Municipal Airport, CO, United States (KFNL) 40-27N 105-01W
Jun 30, 2022 - 08:56 PM EDT / 2022.07.01 0056 UTC
Wind: from the S (190 degrees) at 10 MPH (9 KT):0
Visibility: 10 mile(s):0
Sky conditions: clear
Temperature: 75.9 F (24.4 C)
Dew Point: 50.0 F (10.0 C)
Relative Humidity: 40%
Pressure (altimeter): 30.09 in. Hg (1018 hPa)
ob: KFNL 010056Z 19009KT 10SM CLR 24/10 A3009 RMK AO2 SLP131 T02440100
cycle: 1

Station Type Date Time Source
KFNL TAF UTC NOAA

Error!

Example: see airport list